sensor_id;sensor_type;location;lat;lon;timestamp;temperature;humidity
75769;DHT22;64379;48.888;8.330;2023-05-07T00:01:54;11.80;79.50
75769;DHT22;64379;48.888;8.330;2023-05-07T00:04:19;11.50;79.90
75769;DHT22;64379;48.888;8.330;2023-05-07T00:06:45;11.50;80.10
75769;DHT22;64379;48.888;8.330;2023-05-07T00:09:11;11.70;80.70
75769;DHT22;64379;48.888;8.330;2023-05-07T00:11:37;11.70;80.30
75769;DHT22;64379;48.888;8.330;2023-05-07T00:14:02;11.70;79.40
75769;DHT22;64379;48.888;8.330;2023-05-07T00:16:28;11.70;79.90
75769;DHT22;64379;48.888;8.330;2023-05-07T00:18:53;11.90;79.20
75769;DHT22;64379;48.888;8.330;2023-05-07T00:21:19;11.90;78.90
75769;DHT22;64379;48.888;8.330;2023-05-07T00:23:45;11.90;78.90
75769;DHT22;64379;48.888;8.330;2023-05-07T00:26:10;11.90;78.50
75769;DHT22;64379;48.888;8.330;2023-05-07T00:28:36;11.90;79.10
75769;DHT22;64379;48.888;8.330;2023-05-07T00:31:01;12.00;78.60
75769;DHT22;64379;48.888;8.330;2023-05-07T00:33:27;11.70;79.00
75769;DHT22;64379;48.888;8.330;2023-05-07T00:35:52;11.60;79.70
75769;DHT22;64379;48.888;8.330;2023-05-07T00:38:20;11.70;79.60
75769;DHT22;64379;48.888;8.330;2023-05-07T00:40:45;11.70;79.40
75769;DHT22;64379;48.888;8.330;2023-05-07T00:43:11;11.70;79.80
75769;DHT22;64379;48.888;8.330;2023-05-07T00:45:38;11.90;79.70
75769;DHT22;64379;48.888;8.330;2023-05-07T00:48:04;11.90;79.60
75769;DHT22;64379;48.888;8.330;2023-05-07T00:50:30;11.90;78.70
75769;DHT22;64379;48.888;8.330;2023-05-07T00:52:57;11.80;79.00
75769;DHT22;64379;48.888;8.330;2023-05-07T00:55:23;11.90;80.00
75769;DHT22;64379;48.888;8.330;2023-05-07T00:57:50;11.90;80.10
75769;DHT22;64379;48.888;8.330;2023-05-07T01:00:16;11.90;80.00
75769;DHT22;64379;48.888;8.330;2023-05-07T01:02:42;12.00;79.70
75769;DHT22;64379;48.888;8.330;2023-05-07T01:05:10;12.00;79.60
75769;DHT22;64379;48.888;8.330;2023-05-07T01:07:38;11.90;79.50
75769;DHT22;64379;48.888;8.330;2023-05-07T01:10:06;11.90;79.60
75769;DHT22;64379;48.888;8.330;2023-05-07T01:12:33;11.90;79.70
75769;DHT22;64379;48.888;8.330;2023-05-07T01:14:59;11.90;79.50
75769;DHT22;64379;48.888;8.330;2023-05-07T01:17:26;11.90;79.00
75769;DHT22;64379;48.888;8.330;2023-05-07T01:19:51;11.40;79.10
75769;DHT22;64379;48.888;8.330;2023-05-07T01:22:29;11.00;80.80
75769;DHT22;64379;48.888;8.330;2023-05-07T01:24:57;10.80;82.40
75769;DHT22;64379;48.888;8.330;2023-05-07T01:27:25;10.80;82.30
75769;DHT22;64379;48.888;8.330;2023-05-07T01:29:50;10.80;82.40
75769;DHT22;64379;48.888;8.330;2023-05-07T01:32:20;10.70;83.10
75769;DHT22;64379;48.888;8.330;2023-05-07T01:34:48;10.80;83.20
75769;DHT22;64379;48.888;8.330;2023-05-07T01:37:14;10.80;83.20
75769;DHT22;64379;48.888;8.330;2023-05-07T01:39:41;10.90;83.40
75769;DHT22;64379;48.888;8.330;2023-05-07T01:42:07;11.10;83.10
75769;DHT22;64379;48.888;8.330;2023-05-07T01:44:33;11.10;82.80
75769;DHT22;64379;48.888;8.330;2023-05-07T01:46:59;11.40;82.50
75769;DHT22;64379;48.888;8.330;2023-05-07T01:49:25;11.40;81.80
75769;DHT22;64379;48.888;8.330;2023-05-07T01:51:51;11.50;81.80
75769;DHT22;64379;48.888;8.330;2023-05-07T01:54:17;11.50;81.50
75769;DHT22;64379;48.888;8.330;2023-05-07T01:56:42;11.50;81.30
75769;DHT22;64379;48.888;8.330;2023-05-07T01:59:08;11.60;81.20
75769;DHT22;64379;48.888;8.330;2023-05-07T02:01:36;11.60;80.90
75769;DHT22;64379;48.888;8.330;2023-05-07T02:04:01;11.60;80.70
75769;DHT22;64379;48.888;8.330;2023-05-07T02:06:27;11.50;80.80
75769;DHT22;64379;48.888;8.330;2023-05-07T02:08:53;11.50;81.10
75769;DHT22;64379;48.888;8.330;2023-05-07T02:11:18;11.40;81.20
75769;DHT22;64379;48.888;8.330;2023-05-07T02:13:44;11.10;80.80
75769;DHT22;64379;48.888;8.330;2023-05-07T02:16:10;11.00;81.50
75769;DHT22;64379;48.888;8.330;2023-05-07T02:18:36;10.90;81.70
75769;DHT22;64379;48.888;8.330;2023-05-07T02:21:01;10.90;82.30
75769;DHT22;64379;48.888;8.330;2023-05-07T02:23:27;10.90;82.60
75769;DHT22;64379;48.888;8.330;2023-05-07T02:25:52;11.00;82.50
75769;DHT22;64379;48.888;8.330;2023-05-07T02:28:18;11.00;82.50
75769;DHT22;64379;48.888;8.330;2023-05-07T02:30:43;11.00;82.30
75769;DHT22;64379;48.888;8.330;2023-05-07T02:33:09;11.10;82.40
75769;DHT22;64379;48.888;8.330;2023-05-07T02:35:37;11.10;82.30
75769;DHT22;64379;48.888;8.330;2023-05-07T02:38:03;11.20;82.10
75769;DHT22;64379;48.888;8.330;2023-05-07T02:40:28;11.20;82.20
75769;DHT22;64379;48.888;8.330;2023-05-07T02:42:55;11.20;82.40
75769;DHT22;64379;48.888;8.330;2023-05-07T02:45:21;11.20;82.40
75769;DHT22;64379;48.888;8.330;2023-05-07T02:47:46;11.30;82.40
75769;DHT22;64379;48.888;8.330;2023-05-07T02:50:12;11.30;82.50
75769;DHT22;64379;48.888;8.330;2023-05-07T02:52:37;11.10;82.50
75769;DHT22;64379;48.888;8.330;2023-05-07T02:55:03;11.20;82.40
75769;DHT22;64379;48.888;8.330;2023-05-07T02:57:29;11.10;82.00
75769;DHT22;64379;48.888;8.330;2023-05-07T02:59:54;10.80;82.90
75769;DHT22;64379;48.888;8.330;2023-05-07T03:02:20;10.70;82.90
75769;DHT22;64379;48.888;8.330;2023-05-07T03:04:46;10.70;82.90
75769;DHT22;64379;48.888;8.330;2023-05-07T03:07:11;10.50;83.20
75769;DHT22;64379;48.888;8.330;2023-05-07T03:09:37;10.40;83.60
75769;DHT22;64379;48.888;8.330;2023-05-07T03:12:02;10.50;83.60
75769;DHT22;64379;48.888;8.330;2023-05-07T03:14:28;10.50;83.70
75769;DHT22;64379;48.888;8.330;2023-05-07T03:16:54;10.60;83.70
75769;DHT22;64379;48.888;8.330;2023-05-07T03:19:19;10.70;84.00
75769;DHT22;64379;48.888;8.330;2023-05-07T03:21:45;10.70;84.00
75769;DHT22;64379;48.888;8.330;2023-05-07T03:24:10;10.70;83.70
75769;DHT22;64379;48.888;8.330;2023-05-07T03:26:36;10.80;83.50
75769;DHT22;64379;48.888;8.330;2023-05-07T03:29:01;10.80;83.50
75769;DHT22;64379;48.888;8.330;2023-05-07T03:31:27;10.80;83.20
75769;DHT22;64379;48.888;8.330;2023-05-07T03:33:57;10.90;83.40
75769;DHT22;64379;48.888;8.330;2023-05-07T03:36:23;10.90;83.40
75769;DHT22;64379;48.888;8.330;2023-05-07T03:38:50;11.00;83.30
75769;DHT22;64379;48.888;8.330;2023-05-07T03:41:15;11.00;83.30
75769;DHT22;64379;48.888;8.330;2023-05-07T03:43:43;11.00;83.40
75769;DHT22;64379;48.888;8.330;2023-05-07T03:46:09;11.00;83.20
75769;DHT22;64379;48.888;8.330;2023-05-07T03:48:34;11.00;83.00
75769;DHT22;64379;48.888;8.330;2023-05-07T03:51:00;11.00;82.90
75769;DHT22;64379;48.888;8.330;2023-05-07T03:53:26;11.00;83.00
75769;DHT22;64379;48.888;8.330;2023-05-07T03:55:51;11.00;83.00
75769;DHT22;64379;48.888;8.330;2023-05-07T03:58:17;11.00;83.00
75769;DHT22;64379;48.888;8.330;2023-05-07T04:00:42;11.00;83.00
75769;DHT22;64379;48.888;8.330;2023-05-07T04:03:08;10.90;82.80
75769;DHT22;64379;48.888;8.330;2023-05-07T04:05:34;10.80;82.90
75769;DHT22;64379;48.888;8.330;2023-05-07T04:08:00;10.90;83.00
75769;DHT22;64379;48.888;8.330;2023-05-07T04:10:25;11.00;83.10
75769;DHT22;64379;48.888;8.330;2023-05-07T04:12:51;11.10;82.90
75769;DHT22;64379;48.888;8.330;2023-05-07T04:15:17;11.10;82.80
75769;DHT22;64379;48.888;8.330;2023-05-07T04:17:42;11.10;82.50
75769;DHT22;64379;48.888;8.330;2023-05-07T04:20:15;11.20;82.50
75769;DHT22;64379;48.888;8.330;2023-05-07T04:22:41;10.80;81.20
75769;DHT22;64379;48.888;8.330;2023-05-07T04:25:07;10.50;82.20
75769;DHT22;64379;48.888;8.330;2023-05-07T04:27:34;10.50;82.70
75769;DHT22;64379;48.888;8.330;2023-05-07T04:30:00;10.60;83.00
75769;DHT22;64379;48.888;8.330;2023-05-07T04:32:26;10.60;82.90
75769;DHT22;64379;48.888;8.330;2023-05-07T04:34:52;10.50;82.80
75769;DHT22;64379;48.888;8.330;2023-05-07T04:37:17;10.40;83.00
75769;DHT22;64379;48.888;8.330;2023-05-07T04:39:43;10.60;83.30
75769;DHT22;64379;48.888;8.330;2023-05-07T04:42:09;10.70;83.20
75769;DHT22;64379;48.888;8.330;2023-05-07T04:44:35;10.80;83.00
75769;DHT22;64379;48.888;8.330;2023-05-07T04:47:02;11.00;83.00
75769;DHT22;64379;48.888;8.330;2023-05-07T04:49:28;11.10;82.10
75769;DHT22;64379;48.888;8.330;2023-05-07T04:51:53;11.10;81.30
75769;DHT22;64379;48.888;8.330;2023-05-07T04:54:19;11.10;82.00
75769;DHT22;64379;48.888;8.330;2023-05-07T04:56:44;11.20;81.90
75769;DHT22;64379;48.888;8.330;2023-05-07T04:59:10;11.50;81.70
75769;DHT22;64379;48.888;8.330;2023-05-07T05:01:35;11.50;80.30
75769;DHT22;64379;48.888;8.330;2023-05-07T05:04:01;11.30;81.10
75769;DHT22;64379;48.888;8.330;2023-05-07T05:06:27;11.40;81.20
75769;DHT22;64379;48.888;8.330;2023-05-07T05:08:52;11.60;80.80
75769;DHT22;64379;48.888;8.330;2023-05-07T05:11:18;11.80;80.00
75769;DHT22;64379;48.888;8.330;2023-05-07T05:13:43;11.90;79.70
75769;DHT22;64379;48.888;8.330;2023-05-07T05:16:09;11.90;79.80
75769;DHT22;64379;48.888;8.330;2023-05-07T05:18:35;12.10;79.80
75769;DHT22;64379;48.888;8.330;2023-05-07T05:21:00;12.50;79.50
75769;DHT22;64379;48.888;8.330;2023-05-07T05:23:26;12.70;78.50
75769;DHT22;64379;48.888;8.330;2023-05-07T05:25:56;13.00;78.40
75769;DHT22;64379;48.888;8.330;2023-05-07T05:28:22;13.10;77.80
75769;DHT22;64379;48.888;8.330;2023-05-07T05:30:49;13.30;77.90
75769;DHT22;64379;48.888;8.330;2023-05-07T05:33:14;13.80;76.60
75769;DHT22;64379;48.888;8.330;2023-05-07T05:35:40;14.30;73.90
75769;DHT22;64379;48.888;8.330;2023-05-07T05:38:05;14.60;71.70
75769;DHT22;64379;48.888;8.330;2023-05-07T05:40:31;14.90;70.50
75769;DHT22;64379;48.888;8.330;2023-05-07T05:42:57;14.60;70.70
75769;DHT22;64379;48.888;8.330;2023-05-07T05:45:23;14.20;72.30
75769;DHT22;64379;48.888;8.330;2023-05-07T05:47:48;14.10;74.70
75769;DHT22;64379;48.888;8.330;2023-05-07T05:50:14;14.10;75.00
75769;DHT22;64379;48.888;8.330;2023-05-07T05:52:40;14.20;75.00
75769;DHT22;64379;48.888;8.330;2023-05-07T05:55:06;14.30;74.90
75769;DHT22;64379;48.888;8.330;2023-05-07T05:57:32;14.50;74.40
75769;DHT22;64379;48.888;8.330;2023-05-07T05:59:57;14.50;73.70
75769;DHT22;64379;48.888;8.330;2023-05-07T06:02:23;14.50;73.50
75769;DHT22;64379;48.888;8.330;2023-05-07T06:04:49;14.40;73.80
75769;DHT22;64379;48.888;8.330;2023-05-07T06:07:14;14.80;72.70
75769;DHT22;64379;48.888;8.330;2023-05-07T06:09:40;15.30;71.50
75769;DHT22;64379;48.888;8.330;2023-05-07T06:12:06;16.10;69.60
75769;DHT22;64379;48.888;8.330;2023-05-07T06:14:31;16.50;66.20
75769;DHT22;64379;48.888;8.330;2023-05-07T06:16:57;16.90;65.90
75769;DHT22;64379;48.888;8.330;2023-05-07T06:19:23;17.00;64.40
75769;DHT22;64379;48.888;8.330;2023-05-07T06:21:49;16.90;64.50
75769;DHT22;64379;48.888;8.330;2023-05-07T06:24:18;17.20;63.80
